Time;durP1;ratioP1;P1;durP2;ratioP2;P2;SDS_P1;SDS_P2;PMS_P1;PMS_P2;Temp;Humidity;BMP_temperature;BMP_pressure;BME280_temperature;BME280_humidity;BME280_pressure;Samples;Min_cycle;Max_cycle;Signal;HPM_P1;HPM_P2
2022/10/12 00:01:09;;;;;;;3.03;1.60;;;;;;;8.84;79.27;102669.19;5037094;27;96769;-30
2022/10/12 00:03:35;;;;;;;4.47;2.03;;;;;;;8.85;79.11;102666.47;5036849;27;100230;-30
2022/10/12 00:06:07;;;;;;;4.82;1.75;;;;;;;8.84;79.06;102661.09;5036870;28;98047;-30
2022/10/12 00:08:33;;;;;;;6.00;2.13;;;;;;;8.83;79.28;102660.22;5034990;28;100714;-29
2022/10/12 00:10:59;;;;;;;3.70;2.17;;;;;;;8.83;78.96;102656.63;5035471;28;97365;-30
2022/10/12 00:13:24;;;;;;;6.47;2.42;;;;;;;8.82;79.07;102661.16;5036833;27;96780;-31
2022/10/12 00:15:49;;;;;;;4.88;1.70;;;;;;;8.80;78.91;102663.00;5035808;27;98084;-30
2022/10/12 00:18:15;;;;;;;5.63;1.73;;;;;;;8.80;79.02;102648.59;5036693;27;97969;-30
2022/10/12 00:20:40;;;;;;;2.47;1.60;;;;;;;8.80;79.03;102656.72;5036981;28;96460;-29
2022/10/12 00:23:06;;;;;;;3.92;1.92;;;;;;;8.77;78.93;102652.28;5036803;28;96780;-30
2022/10/12 00:25:35;;;;;;;4.07;2.15;;;;;;;8.76;78.94;102653.19;5036144;28;99578;-31
2022/10/12 00:28:00;;;;;;;3.92;1.73;;;;;;;8.73;79.00;102645.16;5034795;28;101386;-31
2022/10/12 00:30:26;;;;;;;3.63;1.95;;;;;;;8.70;79.10;102647.94;5036629;28;96559;-30
2022/10/12 00:32:51;;;;;;;2.80;1.48;;;;;;;8.67;79.11;102645.31;5036583;28;102690;-31
2022/10/12 00:35:16;;;;;;;4.32;2.33;;;;;;;8.67;78.90;102657.00;5035995;27;99372;-30
2022/10/12 00:37:42;;;;;;;5.25;1.90;;;;;;;8.65;79.00;102655.25;5035904;27;108211;-30
2022/10/12 00:40:08;;;;;;;4.40;1.55;;;;;;;8.61;78.97;102651.75;5036125;27;96469;-30
2022/10/12 00:42:33;;;;;;;4.63;1.85;;;;;;;8.64;79.14;102656.19;5035993;27;96827;-31
2022/10/12 00:44:58;;;;;;;3.72;2.30;;;;;;;8.61;79.53;102650.88;5034877;27;118599;-30
2022/10/12 00:47:31;;;;;;;3.38;1.83;;;;;;;8.59;79.40;102647.31;5035809;28;113579;-30
2022/10/12 00:50:05;;;;;;;5.50;2.58;;;;;;;8.55;79.33;102651.00;5035226;28;96575;-30
2022/10/12 00:52:42;;;;;;;2.60;1.90;;;;;;;8.53;79.19;102645.63;5034949;28;96777;-30
2022/10/12 00:55:11;;;;;;;4.40;2.00;;;;;;;8.53;79.07;102652.84;5034522;28;100848;-30
2022/10/12 00:57:37;;;;;;;3.22;1.83;;;;;;;8.46;79.10;102644.00;5034846;28;100759;-30
2022/10/12 01:00:08;;;;;;;3.40;1.85;;;;;;;8.44;79.19;102652.16;5036282;27;96526;-30
2022/10/12 01:02:36;;;;;;;5.13;2.30;;;;;;;8.44;79.24;102645.88;5034655;28;96687;-31
2022/10/12 01:05:03;;;;;;;2.40;1.55;;;;;;;8.40;79.59;102641.47;5033802;28;101307;-30
2022/10/12 01:07:29;;;;;;;4.95;2.30;;;;;;;8.38;79.29;102637.88;5034178;28;100980;-30
2022/10/12 01:09:54;;;;;;;3.88;2.03;;;;;;;8.35;79.19;102640.66;5034690;28;96655;-30
2022/10/12 01:12:21;;;;;;;3.35;1.63;;;;;;;8.34;79.18;102637.03;5035208;28;114632;-30
2022/10/12 01:14:46;;;;;;;2.85;2.00;;;;;;;8.30;79.25;102627.25;5034215;28;100634;-30
2022/10/12 01:17:30;;;;;;;6.82;2.00;;;;;;;8.31;79.37;102631.72;5035578;27;97843;-30
2022/10/12 01:20:23;;;;;;;3.78;1.88;;;;;;;8.28;79.33;102637.19;5034732;27;96622;-30
2022/10/12 01:23:17;;;;;;;2.40;1.60;;;;;;;8.26;79.47;102629.13;5036251;28;96684;-30
2022/10/12 01:26:04;;;;;;;5.10;2.03;;;;;;;8.23;79.44;102629.22;5035569;28;98079;-31
2022/10/12 01:29:17;;;;;;;4.03;1.67;;;;;;;8.22;79.44;102623.84;5033915;28;100965;-30
2022/10/12 01:31:49;;;;;;;6.25;1.85;;;;;;;8.19;79.49;102619.41;4987806;27;96852;-30
2022/10/12 01:34:18;;;;;;;3.17;1.90;;;;;;;8.19;79.28;102618.50;5034357;28;96682;-30
2022/10/12 01:36:48;;;;;;;3.80;2.30;;;;;;;8.17;79.43;102629.34;5035444;28;97512;-30
2022/10/12 01:39:52;;;;;;;3.00;1.98;;;;;;;8.15;79.40;102628.50;5033844;28;102286;-30
2022/10/12 01:42:36;;;;;;;2.60;1.63;;;;;;;8.12;79.57;102619.56;5000719;27;96781;-29
2022/10/12 01:45:06;;;;;;;3.20;1.70;;;;;;;8.12;79.70;102624.97;5033758;27;96877;-31
2022/10/12 01:47:32;;;;;;;3.42;2.35;;;;;;;8.07;79.75;102612.47;5033873;28;101246;-30
2022/10/12 01:50:00;;;;;;;4.10;2.00;;;;;;;8.05;79.66;102613.44;5035547;27;97838;-30
2022/10/12 01:52:28;;;;;;;4.53;1.98;;;;;;;8.02;79.65;102609.00;5033876;28;96588;-29
2022/10/12 01:55:12;;;;;;;2.78;1.60;;;;;;;8.01;79.55;102612.63;5033899;28;96807;-32
2022/10/12 01:57:55;;;;;;;2.53;1.73;;;;;;;7.99;79.72;102608.19;5034426;28;99815;-30
2022/10/12 02:00:21;;;;;;;7.57;2.00;;;;;;;7.97;79.48;102601.94;5033551;28;100730;-30
2022/10/12 02:03:21;;;;;;;2.72;1.50;;;;;;;7.97;79.68;102604.63;5035382;28;96551;-30
2022/10/12 02:06:11;;;;;;;3.17;1.85;;;;;;;7.94;79.35;102602.88;5014870;27;97003;-29
2022/10/12 02:08:56;;;;;;;2.88;2.03;;;;;;;7.92;79.21;102601.16;5035350;27;97474;-29
2022/10/12 02:11:26;;;;;;;7.38;2.45;;;;;;;7.90;79.35;102595.78;5035084;28;97246;-30
2022/10/12 02:13:58;;;;;;;3.72;2.15;;;;;;;7.90;79.61;102598.47;5017164;28;96869;-29
2022/10/12 02:16:31;;;;;;;5.38;2.25;;;;;;;7.88;79.57;102595.78;5034249;28;96848;-30
2022/10/12 02:18:58;;;;;;;2.97;2.03;;;;;;;7.85;79.78;102586.91;5033373;28;100783;-30
2022/10/12 02:21:29;;;;;;;4.93;1.75;;;;;;;7.84;79.70;102587.81;5034706;27;97359;-30
2022/10/12 02:23:58;;;;;;;2.72;1.67;;;;;;;7.85;79.58;102584.19;5033125;28;96570;-31
2022/10/12 02:26:23;;;;;;;3.60;1.65;;;;;;;7.86;79.83;102577.88;5034930;27;96843;-30
2022/10/12 02:28:49;;;;;;;4.07;1.98;;;;;;;7.86;80.23;102586.88;5034150;27;110064;-29
2022/10/12 02:31:43;;;;;;;4.40;1.48;;;;;;;7.87;80.43;102582.38;5039720;27;97797;-30
2022/10/12 02:34:22;;;;;;;5.70;1.85;;;;;;;7.86;80.02;102580.56;5041564;28;96718;-30
2022/10/12 02:37:02;;;;;;;2.88;1.75;;;;;;;7.85;80.25;102573.41;5040143;28;96729;-30
2022/10/12 02:39:46;;;;;;;5.57;2.28;;;;;;;7.84;80.18;102569.84;5039965;28;100815;-30
2022/10/12 02:42:17;;;;;;;2.72;1.75;;;;;;;7.82;80.31;102571.66;5039885;27;100894;-31
2022/10/12 02:44:43;;;;;;;3.58;1.90;;;;;;;7.82;80.31;102573.50;5040068;28;96586;-30
2022/10/12 02:47:11;;;;;;;4.82;2.63;;;;;;;7.81;80.38;102569.00;5040138;28;96941;-30
2022/10/12 02:49:38;;;;;;;3.13;1.58;;;;;;;7.79;80.28;102565.44;5039029;28;101384;-30
2022/10/12 02:52:05;;;;;;;2.72;1.67;;;;;;;7.79;80.27;102568.13;5039727;27;99183;-31
2022/10/12 02:54:30;;;;;;;2.80;1.90;;;;;;;7.77;80.47;102564.59;5039883;28;96672;-30
2022/10/12 02:56:56;;;;;;;2.50;1.65;;;;;;;7.75;80.50;102561.94;5041242;27;96611;-30
2022/10/12 02:59:21;;;;;;;3.72;1.75;;;;;;;7.75;80.11;102563.75;5041052;27;98203;-29
2022/10/12 03:01:47;;;;;;;3.85;1.80;;;;;;;7.71;80.49;102560.22;5040937;27;97409;-30
2022/10/12 03:04:12;;;;;;;2.92;1.60;;;;;;;7.72;80.54;102561.09;5041371;28;96565;-30
2022/10/12 03:06:37;;;;;;;3.78;1.70;;;;;;;7.72;80.33;102558.41;5041517;27;100660;-30
2022/10/12 03:09:04;;;;;;;3.72;1.88;;;;;;;7.73;80.95;102558.38;5040865;27;97854;-30
2022/10/12 03:11:29;;;;;;;2.25;1.63;;;;;;;7.73;80.42;102554.81;5040455;27;99554;-30
2022/10/12 03:13:55;;;;;;;2.45;1.98;;;;;;;7.71;80.61;102554.81;5040437;28;96496;-30
2022/10/12 03:16:21;;;;;;;2.85;1.77;;;;;;;7.72;80.66;102559.28;5039501;28;96756;-31
2022/10/12 03:18:46;;;;;;;2.40;1.52;;;;;;;7.71;80.86;102560.22;5040676;27;99669;-29
2022/10/12 03:21:12;;;;;;;2.20;1.30;;;;;;;7.72;80.65;102566.50;5041040;27;97338;-31
2022/10/12 03:23:37;;;;;;;2.95;1.73;;;;;;;7.73;80.54;102558.38;5039461;28;96491;-32
2022/10/12 03:26:03;;;;;;;4.43;2.25;;;;;;;7.73;80.86;102565.59;5041004;27;96609;-30
2022/10/12 03:28:30;;;;;;;2.05;1.35;;;;;;;7.74;80.61;102564.66;5040479;28;99139;-30
2022/10/12 03:30:57;;;;;;;5.93;1.33;;;;;;;7.73;80.66;102557.50;5039568;28;100705;-30
2022/10/12 03:33:22;;;;;;;3.30;1.80;;;;;;;7.72;80.76;102555.72;5040810;27;96574;-31
2022/10/12 03:35:48;;;;;;;5.25;1.88;;;;;;;7.71;80.95;102567.44;5041010;27;96789;-30
2022/10/12 03:38:14;;;;;;;2.85;1.83;;;;;;;7.73;80.87;102562.91;5039951;28;98026;-29
2022/10/12 03:40:40;;;;;;;2.03;1.40;;;;;;;7.71;81.27;102557.53;5039142;28;98918;-31
2022/10/12 03:43:06;;;;;;;3.28;1.85;;;;;;;7.76;80.93;102568.22;5036447;27;96763;-31
2022/10/12 03:45:32;;;;;;;5.88;1.77;;;;;;;7.78;81.23;102566.38;5035458;28;96819;-29
2022/10/12 03:47:57;;;;;;;3.83;2.17;;;;;;;7.78;80.83;102561.88;5037257;27;97953;-29
2022/10/12 03:50:23;;;;;;;3.90;2.30;;;;;;;7.79;80.76;102563.63;5037218;27;97704;-29
2022/10/12 03:52:48;;;;;;;5.88;1.70;;;;;;;7.76;81.35;102562.81;5037046;28;96638;-30
2022/10/12 03:55:13;;;;;;;1.80;1.35;;;;;;;7.75;81.45;102555.66;5037876;27;96640;-30
2022/10/12 03:57:39;;;;;;;3.22;1.95;;;;;;;7.77;81.21;102562.81;5036726;27;99488;-30
2022/10/12 04:00:05;;;;;;;2.13;1.48;;;;;;;7.79;81.36;102570.84;5036978;27;97448;-32
2022/10/12 04:02:30;;;;;;;2.15;1.45;;;;;;;7.79;81.49;102563.63;5035003;28;96575;-30
2022/10/12 04:04:56;;;;;;;5.20;2.20;;;;;;;7.75;81.20;102555.66;5036969;28;99635;-30
2022/10/12 04:07:21;;;;;;;3.60;1.92;;;;;;;7.76;81.31;102550.22;5036198;27;115090;-30
2022/10/12 04:09:46;;;;;;;1.80;1.33;;;;;;;7.73;81.02;102552.13;5036942;27;97806;-30
2022/10/12 04:12:12;;;;;;;3.20;1.92;;;;;;;7.72;81.23;102551.19;5036757;27;96579;-30
2022/10/12 04:14:38;;;;;;;2.40;1.45;;;;;;;7.75;81.22;102558.38;5036957;28;96835;-30
2022/10/12 04:17:03;;;;;;;2.60;1.92;;;;;;;7.72;81.35;102556.59;5036241;27;98968;-30
2022/10/12 04:19:28;;;;;;;2.03;1.50;;;;;;;7.65;81.08;102545.06;5036880;27;98711;-30
2022/10/12 04:21:54;;;;;;;2.55;1.60;;;;;;;7.66;81.26;102557.63;5036942;27;96632;-30
2022/10/12 04:24:19;;;;;;;2.95;2.03;;;;;;;7.65;81.15;102549.56;5036932;27;96766;-30
2022/10/12 04:26:44;;;;;;;3.05;1.60;;;;;;;7.63;81.41;102551.44;5035225;28;120642;-30
2022/10/12 04:29:11;;;;;;;3.40;1.60;;;;;;;7.60;81.57;102555.09;5035906;28;113477;-29
2022/10/12 04:31:37;;;;;;;3.63;1.98;;;;;;;7.61;81.19;102551.44;5035224;28;96695;-30
2022/10/12 04:34:02;;;;;;;1.92;1.48;;;;;;;7.61;80.99;102553.25;5035708;28;110525;-30
2022/10/12 04:36:27;;;;;;;3.22;1.77;;;;;;;7.61;81.12;102547.88;5035876;28;111775;-30
2022/10/12 04:38:53;;;;;;;2.58;1.80;;;;;;;7.60;81.14;102552.38;5035694;27;112372;-29
2022/10/12 04:41:18;;;;;;;1.42;1.27;;;;;;;7.58;81.06;102538.03;5036180;27;96659;-30
2022/10/12 04:43:43;;;;;;;2.47;1.60;;;;;;;7.60;81.32;102546.06;5037157;27;96709;-30
2022/10/12 04:46:09;;;;;;;2.47;1.88;;;;;;;7.62;81.22;102544.25;5035152;28;99462;-30
2022/10/12 04:48:34;;;;;;;6.53;2.05;;;;;;;7.59;80.97;102544.31;5036038;27;99094;-31
2022/10/12 04:51:00;;;;;;;9.18;2.15;;;;;;;7.62;81.27;102537.03;5035879;27;96608;-29
2022/10/12 04:53:25;;;;;;;3.17;1.92;;;;;;;7.61;81.40;102537.97;5036082;27;96671;-30
2022/10/12 04:55:50;;;;;;;6.20;2.20;;;;;;;7.63;81.33;102535.25;5035926;28;97539;-30
2022/10/12 04:58:16;;;;;;;7.80;2.65;;;;;;;7.61;81.48;102527.19;5035408;28;114333;-30
2022/10/12 05:00:41;;;;;;;3.90;2.28;;;;;;;7.64;81.23;102532.50;5035985;28;96657;-29
2022/10/12 05:03:06;;;;;;;3.10;1.95;;;;;;;7.66;81.74;102530.66;5036102;27;98155;-30
2022/10/12 05:05:33;;;;;;;2.35;1.73;;;;;;;7.64;81.43;102524.41;5035997;27;97721;-29
2022/10/12 05:07:58;;;;;;;3.72;1.90;;;;;;;7.66;81.79;102527.97;5034726;28;101127;-30
2022/10/12 05:10:24;;;;;;;2.65;1.73;;;;;;;7.69;81.71;102531.50;5036472;27;96613;-31
2022/10/12 05:12:49;;;;;;;1.95;1.48;;;;;;;7.65;81.77;102526.19;5036122;27;96820;-31
2022/10/12 05:15:14;;;;;;;3.08;2.15;;;;;;;7.67;81.93;102531.53;5035051;27;97851;-30
2022/10/12 05:17:40;;;;;;;4.03;1.95;;;;;;;7.68;81.92;102521.66;5036087;27;97025;-29
2022/10/12 05:20:06;;;;;;;3.80;2.28;;;;;;;7.66;82.02;102519.88;5035293;28;107246;-29
2022/10/12 05:22:31;;;;;;;3.03;1.80;;;;;;;7.65;81.44;102515.41;5035903;27;96802;-29
2022/10/12 05:24:56;;;;;;;4.00;1.90;;;;;;;7.64;81.73;102516.31;5035012;28;118516;-31
2022/10/12 05:27:22;;;;;;;4.05;2.15;;;;;;;7.66;81.63;102524.38;5035179;28;108812;-31
2022/10/12 05:29:47;;;;;;;4.20;2.13;;;;;;;7.62;81.90;102518.16;5035816;27;96688;-30
2022/10/12 05:32:13;;;;;;;3.53;1.73;;;;;;;7.64;81.49;102520.81;5036129;27;96719;-29
2022/10/12 05:34:38;;;;;;;3.65;1.95;;;;;;;7.61;81.63;102527.19;5035130;27;99427;-31
2022/10/12 05:37:03;;;;;;;3.30;2.25;;;;;;;7.60;81.85;102522.72;5035208;27;98559;-29
2022/10/12 05:39:29;;;;;;;3.38;2.17;;;;;;;7.60;81.71;102520.03;5034959;27;96569;-30
2022/10/12 05:41:54;;;;;;;9.65;2.95;;;;;;;7.58;81.63;102529.94;5034636;27;110650;-29
2022/10/12 05:44:20;;;;;;;3.95;2.85;;;;;;;7.58;81.63;102529.94;5035312;27;97891;-30
2022/10/12 05:46:45;;;;;;;5.07;2.92;;;;;;;7.56;81.72;102526.41;5033493;28;101175;-30
2022/10/12 05:49:11;;;;;;;4.93;2.88;;;;;;;7.56;81.50;102528.22;5035467;27;96443;-29
2022/10/12 05:51:37;;;;;;;4.40;2.42;;;;;;;7.52;81.78;102524.69;5035515;27;96741;-30
2022/10/12 05:54:03;;;;;;;8.27;2.80;;;;;;;7.48;81.82;102516.69;5033707;28;100764;-30
2022/10/12 05:56:28;;;;;;;5.35;2.47;;;;;;;7.45;81.75;102518.53;5035509;27;97721;-29
2022/10/12 05:58:54;;;;;;;5.30;2.28;;;;;;;7.45;81.39;102523.03;5035227;27;96624;-29
2022/10/12 06:01:19;;;;;;;2.83;1.88;;;;;;;7.42;81.55;102526.69;5035134;28;96689;-30
2022/10/12 06:03:45;;;;;;;3.15;1.88;;;;;;;7.43;81.41;102522.19;5033909;28;117262;-29
2022/10/12 06:06:10;;;;;;;4.38;2.42;;;;;;;7.41;81.89;102518.63;5033963;27;99267;-30
2022/10/12 06:08:35;;;;;;;3.80;2.17;;;;;;;7.39;81.65;102521.38;5034753;28;98912;-30
2022/10/12 06:11:01;;;;;;;3.10;2.22;;;;;;;7.37;81.72;102517.81;5035254;28;96869;-29
2022/10/12 06:13:26;;;;;;;5.30;2.90;;;;;;;7.38;81.90;102516.88;5033066;28;105525;-29
2022/10/12 06:15:52;;;;;;;3.78;2.20;;;;;;;7.34;81.99;102525.06;5034161;27;112418;-30
2022/10/12 06:18:18;;;;;;;3.65;2.40;;;;;;;7.36;81.81;102525.94;5035284;27;96617;-30
2022/10/12 06:20:49;;;;;;;4.38;2.78;;;;;;;7.33;82.11;102520.59;5033857;28;96926;-30
2022/10/12 06:23:16;;;;;;;7.28;2.50;;;;;;;7.34;81.86;102525.97;5033206;28;100640;-30
2022/10/12 06:25:41;;;;;;;7.07;2.72;;;;;;;7.36;81.71;102520.53;5033088;28;101171;-30
2022/10/12 06:28:07;;;;;;;7.75;2.28;;;;;;;7.37;81.64;102519.63;5034266;27;96585;-30
2022/10/12 06:30:32;;;;;;;4.65;2.63;;;;;;;7.38;81.97;102516.00;5035025;27;96622;-30
2022/10/12 06:32:57;;;;;;;3.67;2.67;;;;;;;7.40;81.93;102515.03;5034671;27;98062;-30
2022/10/12 06:35:23;;;;;;;5.15;3.10;;;;;;;7.41;82.03;102508.75;5034415;27;103419;-31
2022/10/12 06:37:49;;;;;;;5.90;3.22;;;;;;;7.41;82.13;102516.84;5034129;28;108723;-30
2022/10/12 06:40:16;;;;;;;4.70;2.90;;;;;;;7.43;81.87;102509.56;5033309;28;96796;-30
2022/10/12 06:42:41;;;;;;;4.07;2.50;;;;;;;7.47;82.06;102506.84;5032324;28;100733;-30
2022/10/12 06:45:07;;;;;;;3.60;2.00;;;;;;;7.47;82.17;102507.72;5034549;27;97809;-30
2022/10/12 06:47:32;;;;;;;6.05;2.83;;;;;;;7.50;82.06;102507.66;5034508;28;96590;-30
2022/10/12 06:49:57;;;;;;;4.05;2.22;;;;;;;7.50;82.31;102507.66;5034514;28;99575;-29
2022/10/12 06:52:23;;;;;;;3.55;2.50;;;;;;;7.51;82.02;102511.22;5033962;27;97820;-30
2022/10/12 06:54:48;;;;;;;12.85;3.38;;;;;;;7.50;82.32;102507.66;5034134;28;109175;-30
2022/10/12 06:57:13;;;;;;;5.20;2.65;;;;;;;7.52;82.01;102507.63;5033946;28;105337;-29
2022/10/12 06:59:39;;;;;;;6.90;3.63;;;;;;;7.52;82.42;102503.09;5034463;28;96752;-29
2022/10/12 07:02:04;;;;;;;4.10;2.58;;;;;;;7.55;82.17;102507.53;5033797;27;105964;-30
2022/10/12 07:04:29;;;;;;;4.85;2.80;;;;;;;7.57;82.35;102513.78;5034202;28;106465;-32
2022/10/12 07:06:54;;;;;;;2.97;2.05;;;;;;;7.60;81.92;102506.53;5034340;28;96455;-30
2022/10/12 07:09:20;;;;;;;2.58;2.03;;;;;;;7.60;82.04;102511.94;5034390;28;102900;-30
2022/10/12 07:11:45;;;;;;;5.32;1.88;;;;;;;7.63;81.89;102514.56;5033611;27;108834;-30
2022/10/12 07:14:10;;;;;;;6.43;1.98;;;;;;;7.64;81.80;102510.91;5033103;28;110415;-30
2022/10/12 07:16:35;;;;;;;7.65;2.05;;;;;;;7.64;81.94;102508.22;5033620;27;98152;-30
2022/10/12 07:19:01;;;;;;;5.78;2.20;;;;;;;7.62;82.06;102501.97;5037653;27;96793;-30
2022/10/12 07:21:26;;;;;;;3.50;2.28;;;;;;;7.65;81.59;102512.72;5036971;27;114624;-30
2022/10/12 07:23:52;;;;;;;3.72;1.95;;;;;;;7.66;81.82;102521.69;5037583;27;97963;-30
2022/10/12 07:26:17;;;;;;;4.32;2.53;;;;;;;7.64;82.28;102520.81;5037777;28;96482;-30
2022/10/12 07:28:43;;;;;;;3.15;1.77;;;;;;;7.62;82.19;102518.16;5037454;27;96862;-30
2022/10/12 07:31:09;;;;;;;3.17;1.95;;;;;;;7.64;81.94;102515.44;5037402;27;97690;-30
2022/10/12 07:33:37;;;;;;;5.78;2.65;;;;;;;7.61;82.01;102508.31;5036144;28;100700;-30
2022/10/12 07:36:03;;;;;;;4.50;2.45;;;;;;;7.61;82.01;102510.13;5036279;28;96694;-29
2022/10/12 07:38:29;;;;;;;5.45;2.10;;;;;;;7.63;81.99;102509.16;5036033;28;96905;-29
2022/10/12 07:41:01;;;;;;;3.42;2.17;;;;;;;7.64;81.68;102508.22;5035301;28;100890;-30
2022/10/12 07:43:28;;;;;;;3.33;2.05;;;;;;;7.70;81.74;102509.00;5035508;27;101080;-30
2022/10/12 07:45:53;;;;;;;9.50;2.50;;;;;;;7.72;81.77;102504.47;5035663;27;96468;-30
2022/10/12 07:48:19;;;;;;;4.80;1.92;;;;;;;7.75;81.87;102505.28;5037272;27;96889;-30
2022/10/12 07:50:44;;;;;;;3.92;2.20;;;;;;;7.83;82.28;102507.81;5035602;28;100983;-30
2022/10/12 07:53:10;;;;;;;6.30;2.47;;;;;;;7.87;81.75;102506.81;5037166;27;97636;-30
2022/10/12 07:55:35;;;;;;;3.15;2.35;;;;;;;7.91;82.01;102503.09;5036542;27;103596;-30
2022/10/12 07:58:00;;;;;;;4.43;2.65;;;;;;;7.98;82.36;102510.13;5036171;28;96842;-30
2022/10/12 08:00:27;;;;;;;14.35;2.63;;;;;;;8.02;82.23;102517.22;5036441;27;109090;-30
2022/10/12 08:02:53;;;;;;;3.63;2.47;;;;;;;8.09;82.08;102517.97;5035424;28;100990;-29
2022/10/12 08:05:22;;;;;;;9.43;2.35;;;;;;;8.15;81.78;102517.84;5036611;28;96447;-30
2022/10/12 08:07:48;;;;;;;6.03;2.42;;;;;;;8.21;81.33;102516.78;5035689;28;96798;-31
2022/10/12 08:10:14;;;;;;;4.40;2.70;;;;;;;8.25;81.35;102530.19;5035231;28;99371;-30
2022/10/12 08:12:39;;;;;;;5.78;3.03;;;;;;;8.31;81.24;102523.72;5036708;28;97672;-31
2022/10/12 08:15:05;;;;;;;4.50;2.92;;;;;;;8.35;81.74;102527.25;5036232;27;102398;-29
2022/10/12 08:17:31;;;;;;;4.53;2.45;;;;;;;8.43;81.52;102538.78;5036657;28;96888;-29
2022/10/12 08:19:56;;;;;;;6.22;2.88;;;;;;;8.50;81.26;102545.78;5036675;27;97929;-29
2022/10/12 08:22:22;;;;;;;4.28;2.88;;;;;;;8.57;80.55;102533.03;5036577;27;99284;-30
2022/10/12 08:24:47;;;;;;;7.32;3.17;;;;;;;8.66;82.07;102530.09;5036669;27;96602;-30
2022/10/12 08:27:12;;;;;;;4.00;2.40;;;;;;;8.72;80.53;102521.78;5036777;28;96832;-31
2022/10/12 08:29:38;;;;;;;7.22;2.58;;;;;;;8.83;80.69;102521.53;5035368;27;98997;-30
2022/10/12 08:32:04;;;;;;;4.45;2.30;;;;;;;8.89;80.70;102521.34;5036409;27;99033;-30
2022/10/12 08:34:29;;;;;;;7.68;2.83;;;;;;;8.97;81.13;102529.25;5036624;28;96462;-29
2022/10/12 08:36:55;;;;;;;2.92;1.65;;;;;;;9.07;80.70;102533.47;5036471;27;96757;-30
2022/10/12 08:39:20;;;;;;;6.18;2.20;;;;;;;9.16;80.74;102525.09;5036143;28;97470;-30
2022/10/12 08:42:07;;;;;;;3.40;2.15;;;;;;;9.25;80.55;102545.59;5035831;27;97741;-29
2022/10/12 08:44:38;;;;;;;13.25;2.45;;;;;;;9.32;80.25;102531.84;5035197;28;96611;-29
2022/10/12 08:47:37;;;;;;;6.53;2.35;;;;;;;9.45;79.76;102537.75;5037028;27;96680;-30
2022/10/12 08:50:05;;;;;;;7.20;2.20;;;;;;;9.52;79.55;102527.66;5035938;28;97406;-30
2022/10/12 08:52:33;;;;;;;6.10;3.10;;;;;;;9.61;79.33;102532.78;5034503;28;101098;-30
2022/10/12 08:55:15;;;;;;;6.78;2.63;;;;;;;9.66;78.99;102520.00;5034568;28;96542;-30
2022/10/12 08:57:40;;;;;;;6.22;2.30;;;;;;;9.71;78.98;102512.63;5036502;28;96569;-29
2022/10/12 09:00:12;;;;;;;4.18;2.55;;;;;;;9.77;78.88;102509.75;5036062;27;98018;-30
2022/10/12 09:02:56;;;;;;;4.55;2.15;;;;;;;9.86;78.55;102500.41;5034322;28;102002;-30
2022/10/12 09:05:30;;;;;;;4.47;2.30;;;;;;;9.91;78.55;102478.63;5034806;28;96696;-31
2022/10/12 09:08:06;;;;;;;5.40;2.90;;;;;;;9.98;78.16;102488.31;5034705;28;96817;-30
2022/10/12 09:10:45;;;;;;;7.15;2.88;;;;;;;10.11;78.59;102505.06;5034147;28;101408;-30
2022/10/12 09:13:28;;;;;;;5.25;2.75;;;;;;;10.19;78.64;102502.97;5035987;28;99353;-29
2022/10/12 09:16:01;;;;;;;;;;;;;;;10.29;78.53;102507.16;5034758;28;97057;-29
2022/10/12 09:18:39;;;;;;;4.53;1.80;;;;;;;10.40;78.20;102515.81;5036326;28;96822;-30
2022/10/12 09:21:07;;;;;;;4.90;2.15;;;;;;;10.54;77.73;102526.19;5033390;28;102510;-31
2022/10/12 09:23:38;;;;;;;3.00;1.95;;;;;;;10.65;77.31;102527.63;5034096;28;101622;-30
2022/10/12 09:26:33;;;;;;;4.22;2.20;;;;;;;10.77;75.99;102522.69;5034599;28;96793;-30
2022/10/12 09:28:59;;;;;;;4.55;1.92;;;;;;;10.90;76.21;102522.25;5035709;28;96702;-30
2022/10/12 09:31:49;;;;;;;6.05;2.65;;;;;;;11.10;75.56;102537.78;5035448;27;97786;-29
2022/10/12 09:34:14;;;;;;;7.50;2.55;;;;;;;11.26;75.39;102537.16;5035583;27;97819;-29
2022/10/12 09:36:41;;;;;;;7.20;2.65;;;;;;;11.48;75.17;102525.50;5035758;27;96591;-30
2022/10/12 09:39:14;;;;;;;6.10;2.50;;;;;;;11.74;74.86;102538.03;5034225;28;96805;-30
2022/10/12 09:41:42;;;;;;;4.32;2.20;;;;;;;11.95;73.10;102524.59;5033109;27;100940;-30
2022/10/12 09:44:34;;;;;;;4.72;2.08;;;;;;;12.21;72.05;102520.81;5033832;28;100773;-30
2022/10/12 09:47:05;;;;;;;7.35;2.08;;;;;;;12.47;71.38;102515.16;5023573;28;97033;-30
2022/10/12 09:49:40;;;;;;;5.75;2.75;;;;;;;12.74;71.79;102513.06;5034072;28;96605;-30
2022/10/12 09:52:05;;;;;;;5.80;2.35;;;;;;;13.08;70.27;102510.69;5035108;28;97881;-30
2022/10/12 09:54:32;;;;;;;12.13;2.47;;;;;;;13.29;69.55;102500.69;5034528;27;98753;-29
2022/10/12 09:56:57;;;;;;;5.03;2.08;;;;;;;13.47;69.13;102502.56;5033995;28;96696;-29
2022/10/12 09:59:33;;;;;;;6.30;2.25;;;;;;;13.69;65.97;102501.53;5035488;28;96788;-30
2022/10/12 10:02:20;;;;;;;3.97;2.50;;;;;;;13.81;65.46;102492.78;5033574;28;101186;-29
2022/10/12 10:04:47;;;;;;;6.95;2.60;;;;;;;14.00;66.54;102487.28;5033800;28;99111;-30
2022/10/12 10:07:19;;;;;;;7.47;2.72;;;;;;;14.21;64.79;102479.88;5033849;28;96492;-30
2022/10/12 10:09:45;;;;;;;3.90;2.17;;;;;;;14.22;65.67;102473.47;5033810;28;96838;-30
2022/10/12 10:12:25;;;;;;;7.57;2.45;;;;;;;14.44;63.89;102474.16;5032913;28;101064;-29
2022/10/12 10:14:55;;;;;;;7.10;2.47;;;;;;;14.61;65.17;102451.47;5033137;28;100872;-31
2022/10/12 10:17:33;;;;;;;10.45;2.75;;;;;;;14.84;64.68;102441.16;5033391;28;96727;-29
2022/10/12 10:20:02;;;;;;;5.43;3.05;;;;;;;14.92;65.12;102432.56;5033822;28;96733;-30
2022/10/12 10:22:28;;;;;;;9.18;3.55;;;;;;;15.09;64.34;102435.28;5034570;27;99493;-30
2022/10/12 10:24:59;;;;;;;8.68;2.88;;;;;;;15.25;64.47;102425.25;5033367;28;100863;-29
2022/10/12 10:27:35;;;;;;;9.18;3.05;;;;;;;15.52;62.99;102421.94;5033522;28;96564;-30
2022/10/12 10:30:16;;;;;;;7.30;2.70;;;;;;;15.71;62.70;102416.31;5035032;27;96692;-30
2022/10/12 10:32:43;;;;;;;4.13;2.55;;;;;;;15.44;63.07;102416.88;5034632;27;98120;-30
2022/10/12 10:35:11;;;;;;;5.30;2.80;;;;;;;15.34;63.73;102412.94;5033185;28;101459;-31
2022/10/12 10:37:42;;;;;;;9.93;3.47;;;;;;;15.40;63.87;102406.25;5034141;27;96622;-30
2022/10/12 10:40:21;;;;;;;9.68;3.50;;;;;;;15.49;61.83;102401.16;5034892;27;96565;-30
2022/10/12 10:43:00;;;;;;;5.25;2.65;;;;;;;15.60;60.68;102402.38;5034364;28;98078;-29
2022/10/12 10:45:32;;;;;;;8.95;3.03;;;;;;;15.79;60.51;102408.53;5034050;28;99171;-30
2022/10/12 10:48:05;;;;;;;7.78;2.38;;;;;;;15.62;62.35;102401.31;5034901;28;96761;-29
2022/10/12 10:50:36;;;;;;;6.72;3.10;;;;;;;15.50;61.61;102396.56;5034753;27;96566;-31
2022/10/12 10:53:06;;;;;;;7.30;3.08;;;;;;;15.50;63.21;102400.16;5036546;27;101364;-29
2022/10/12 10:55:46;;;;;;;7.32;2.92;;;;;;;15.47;62.59;102402.22;5036766;28;100817;-32
2022/10/12 10:58:26;;;;;;;8.05;3.08;;;;;;;15.64;61.79;102404.84;5038296;28;96575;-30
2022/10/12 11:00:57;;;;;;;8.40;2.85;;;;;;;15.71;62.47;102405.41;5036637;28;96811;-30
2022/10/12 11:03:33;;;;;;;6.78;2.70;;;;;;;15.53;61.92;102404.56;5035750;28;101420;-30
2022/10/12 11:06:18;;;;;;;8.93;2.78;;;;;;;15.32;61.54;102413.97;5038027;27;97832;-31
2022/10/12 11:08:46;;;;;;;10.38;2.67;;;;;;;15.00;62.15;102400.28;5038230;27;96594;-29
2022/10/12 11:11:21;;;;;;;9.35;2.42;;;;;;;14.86;61.36;102396.47;5036563;28;96927;-31
2022/10/12 11:14:03;;;;;;;5.18;2.30;;;;;;;14.81;63.56;102393.13;5037194;27;99368;-30
2022/10/12 11:16:44;;;;;;;6.68;2.25;;;;;;;14.69;62.89;102385.59;5036153;28;100843;-29
2022/10/12 11:19:43;;;;;;;5.80;2.53;;;;;;;14.60;63.46;102400.59;5038112;28;96485;-30
2022/10/12 11:22:17;;;;;;;6.55;2.42;;;;;;;14.50;64.26;102392.97;5038008;28;96779;-30
2022/10/12 11:24:53;;;;;;;6.90;2.60;;;;;;;14.39;63.59;102396.25;5037584;28;98319;-32
2022/10/12 11:27:29;;;;;;;6.07;2.78;;;;;;;14.33;64.71;102397.47;5036146;28;100841;-30
2022/10/12 11:30:00;;;;;;;6.70;2.70;;;;;;;14.27;64.82;102386.88;5035826;28;96715;-30
2022/10/12 11:32:35;;;;;;;6.18;2.53;;;;;;;14.25;64.44;102394.25;5037481;27;96721;-30
2022/10/12 11:35:03;;;;;;;5.63;2.42;;;;;;;14.26;64.08;102385.13;5035875;28;101291;-29
2022/10/12 11:37:37;;;;;;;5.68;2.45;;;;;;;14.29;63.08;102379.50;5035799;28;102178;-30
2022/10/12 11:40:05;;;;;;;6.03;2.67;;;;;;;14.35;63.50;102376.47;5036179;28;96788;-30